Time;durP1;ratioP1;P1;durP2;ratioP2;P2;SDS_P1;SDS_P2;PMS_P1;PMS_P2;Temp;Humidity;BMP_temperature;BMP_pressure;BME280_temperature;BME280_humidity;BME280_pressure;Samples;Min_cycle;Max_cycle;Signal;HPM_P1;HPM_P2
2022/08/22 00:02:13;;;;;;;3.17;1.87;;;;;;;17.27;62.73;100841.19;5114206;28;20190;-86
2022/08/22 00:04:47;;;;;;;3.17;2.03;;;;;;;17.21;62.71;100829.13;5106286;28;20686;-86
2022/08/22 00:07:25;;;;;;;2.40;2.07;;;;;;;17.17;63.13;100829.53;5094401;28;20211;-86
2022/08/22 00:10:01;;;;;;;3.50;2.37;;;;;;;17.16;63.53;100827.84;5113610;28;20552;-85
2022/08/22 00:12:32;;;;;;;3.60;2.60;;;;;;;17.19;63.71;100835.66;5114852;27;20194;-86
2022/08/22 00:15:06;;;;;;;7.13;2.47;;;;;;;17.21;63.98;100834.50;5114136;28;20227;-86
2022/08/22 00:17:44;;;;;;;3.27;2.30;;;;;;;17.25;63.84;100840.47;5112436;28;20200;-86
2022/08/22 00:20:18;;;;;;;3.27;2.57;;;;;;;17.28;63.82;100838.38;5093711;28;20211;-85
2022/08/22 00:22:51;;;;;;;3.57;3.00;;;;;;;17.31;63.78;100843.47;5106981;28;20570;-86
2022/08/22 00:25:34;;;;;;;4.60;2.73;;;;;;;17.32;63.68;100845.19;5109004;28;20226;-86
2022/08/22 00:28:07;;;;;;;4.23;3.13;;;;;;;17.35;63.88;100847.63;5114119;28;20209;-85
2022/08/22 00:30:53;;;;;;;6.97;3.27;;;;;;;17.36;63.89;100843.09;5105454;28;20187;-85
2022/08/22 00:33:31;;;;;;;7.37;3.97;;;;;;;17.37;63.80;100849.31;5097378;28;20213;-85
2022/08/22 00:36:15;;;;;;;4.00;3.20;;;;;;;17.38;64.18;100845.66;5103020;28;20636;-87
2022/08/22 00:38:50;;;;;;;4.57;3.80;;;;;;;17.37;64.33;100854.72;5102647;28;20201;-85
2022/08/22 00:41:30;;;;;;;4.33;3.57;;;;;;;17.36;64.71;100848.47;5113612;27;20195;-85
2022/08/22 00:44:17;;;;;;;4.13;3.70;;;;;;;17.37;64.61;100849.31;5104201;28;20703;-86
2022/08/22 00:47:05;;;;;;;5.83;4.17;;;;;;;17.34;64.80;100845.06;5097644;28;20197;-86
2022/08/22 00:49:48;;;;;;;4.30;3.90;;;;;;;17.31;65.07;100853.41;5112725;28;20188;-87
2022/08/22 00:52:29;;;;;;;4.40;3.90;;;;;;;17.28;65.44;100843.75;5114091;28;20779;-84
2022/08/22 00:55:12;;;;;;;5.53;4.00;;;;;;;17.27;65.63;100847.44;5095421;28;20231;-85
2022/08/22 00:58:05;;;;;;;5.67;4.60;;;;;;;17.24;65.72;100845.00;5098517;28;20201;-85
2022/08/22 01:00:40;;;;;;;4.90;4.43;;;;;;;17.21;66.16;100850.66;5099733;28;20203;-86
2022/08/22 01:03:39;;;;;;;6.97;4.50;;;;;;;17.18;66.31;100842.88;5102457;28;20220;-85
2022/08/22 01:06:19;;;;;;;5.27;4.70;;;;;;;17.15;66.61;100851.22;5093683;28;20616;-85
2022/08/22 01:09:00;;;;;;;9.63;4.77;;;;;;;17.13;67.10;100852.31;5112563;28;20722;-86
2022/08/22 01:11:52;;;;;;;5.17;4.50;;;;;;;17.12;66.99;100839.84;5100868;28;20320;-84
2022/08/22 01:14:36;;;;;;;7.40;4.80;;;;;;;17.09;67.23;100842.81;5105161;28;20233;-85
2022/08/22 01:17:32;;;;;;;6.10;4.73;;;;;;;17.07;67.63;100852.84;5113028;27;20205;-85
2022/08/22 01:20:28;;;;;;;5.20;4.70;;;;;;;17.06;67.71;100843.91;5117343;27;20273;-85
2022/08/22 01:23:28;;;;;;;6.57;5.63;;;;;;;17.04;67.75;100843.19;5108273;28;20181;-86
2022/08/22 01:26:41;;;;;;;6.67;5.40;;;;;;;17.04;68.11;100853.09;5110034;27;20239;-85
2022/08/22 01:30:01;;;;;;;8.30;5.53;;;;;;;17.02;68.28;100851.41;5027666;28;20239;-85
2022/08/22 01:33:05;;;;;;;7.83;5.30;;;;;;;17.00;68.57;100856.09;5028988;28;20292;-85
2022/08/22 01:35:58;;;;;;;7.93;5.07;;;;;;;16.99;68.76;100848.16;5111102;28;20231;-85
2022/08/22 01:38:57;;;;;;;7.87;4.87;;;;;;;16.98;68.82;100846.44;5114471;28;20189;-85
2022/08/22 01:41:46;;;;;;;6.77;5.07;;;;;;;16.90;68.26;100848.94;5113535;28;20212;-86
2022/08/22 01:44:29;;;;;;;6.23;4.67;;;;;;;16.80;68.24;100845.34;5093196;28;20323;-85
2022/08/22 01:47:01;;;;;;;5.97;4.67;;;;;;;16.74;68.37;100841.34;5107925;28;20196;-86
2022/08/22 01:49:41;;;;;;;7.97;4.60;;;;;;;16.71;68.62;100838.06;5113426;28;20304;-86
2022/08/22 01:52:12;;;;;;;5.23;4.80;;;;;;;16.66;68.74;100833.91;5113275;28;20187;-86
2022/08/22 01:54:47;;;;;;;5.63;4.73;;;;;;;16.63;68.65;100838.72;5112734;28;20212;-87
2022/08/22 01:57:14;;;;;;;4.67;4.27;;;;;;;16.61;68.78;100829.91;5112714;28;20202;-85
2022/08/22 01:59:44;;;;;;;6.87;5.00;;;;;;;16.59;68.72;100838.09;5108402;28;20213;-86
2022/08/22 02:02:26;;;;;;;6.30;4.87;;;;;;;16.55;68.55;100833.97;5091957;28;20296;-86
2022/08/22 02:05:00;;;;;;;6.33;5.20;;;;;;;16.52;68.66;100844.97;5104766;28;20227;-85
2022/08/22 02:07:34;;;;;;;6.37;5.60;;;;;;;16.46;68.56;100841.97;5112307;28;20298;-86
2022/08/22 02:10:12;;;;;;;5.60;5.13;;;;;;;16.36;68.55;100852.63;5097363;28;20193;-86
2022/08/22 02:12:45;;;;;;;6.40;5.40;;;;;;;16.27;68.22;100837.28;5091877;28;20273;-85
2022/08/22 02:15:21;;;;;;;5.87;5.30;;;;;;;16.20;68.82;100841.47;5092577;28;20228;-86
2022/08/22 02:18:02;;;;;;;6.13;5.00;;;;;;;16.15;69.02;100843.69;5105684;28;20189;-86
2022/08/22 02:20:33;;;;;;;6.27;4.77;;;;;;;16.13;69.52;100845.63;5111691;28;20256;-86
2022/08/22 02:23:09;;;;;;;5.77;5.17;;;;;;;16.12;69.52;100841.28;5113187;28;20191;-86
2022/08/22 02:25:56;;;;;;;7.47;6.03;;;;;;;16.09;69.69;100845.06;5112442;28;20229;-86
2022/08/22 02:28:36;;;;;;;8.60;5.87;;;;;;;16.04;69.91;100843.72;5109786;28;20211;-85
2022/08/22 02:31:10;;;;;;;6.63;4.97;;;;;;;15.97;70.05;100836.16;5113180;28;20256;-86
2022/08/22 02:33:48;;;;;;;6.27;5.30;;;;;;;15.90;70.41;100835.00;5113297;28;20305;-85
2022/08/22 02:36:20;;;;;;;6.07;5.47;;;;;;;15.87;70.69;100837.06;5105827;28;20196;-85
2022/08/22 02:38:59;;;;;;;6.63;5.87;;;;;;;15.84;71.02;100838.16;5105902;28;20731;-86
2022/08/22 02:41:34;;;;;;;7.17;5.97;;;;;;;15.79;70.82;100843.06;5112745;28;20196;-88
2022/08/22 02:44:13;;;;;;;5.87;5.33;;;;;;;15.72;70.85;100838.34;5108860;28;20568;-85
2022/08/22 02:46:48;;;;;;;7.00;5.73;;;;;;;15.67;71.20;100838.69;5112251;28;20219;-86
2022/08/22 02:49:20;;;;;;;7.53;5.53;;;;;;;15.65;71.38;100835.28;5092361;28;20229;-85
2022/08/22 02:51:53;;;;;;;5.90;5.20;;;;;;;15.60;71.64;100840.16;5092030;28;20189;-85
2022/08/22 02:54:29;;;;;;;6.47;5.47;;;;;;;15.55;71.54;100839.69;5100837;28;20215;-85
2022/08/22 02:57:02;;;;;;;8.53;5.87;;;;;;;15.50;71.14;100844.56;5112376;28;20204;-85
2022/08/22 02:59:35;;;;;;;6.70;5.77;;;;;;;15.43;71.29;100846.00;5093314;28;20557;-85
2022/08/22 03:02:27;;;;;;;7.67;5.80;;;;;;;15.35;71.31;100841.28;5096227;28;20198;-85
2022/08/22 03:04:57;;;;;;;6.90;6.20;;;;;;;15.28;71.38;100848.97;5095495;28;20276;-85
2022/08/22 03:07:35;;;;;;;6.60;5.63;;;;;;;15.24;71.83;100858.22;5090933;28;20211;-84
2022/08/22 03:10:17;;;;;;;7.57;5.93;;;;;;;15.20;71.79;100846.03;5097543;28;20195;-84
2022/08/22 03:12:54;;;;;;;6.40;5.80;;;;;;;15.16;72.10;100846.41;5096807;28;20200;-85
2022/08/22 03:15:27;;;;;;;6.50;5.90;;;;;;;15.14;72.28;100848.34;5099320;28;20216;-84
2022/08/22 03:18:00;;;;;;;6.30;5.70;;;;;;;15.11;72.27;100851.28;5107978;28;20709;-85
2022/08/22 03:20:43;;;;;;;6.70;5.93;;;;;;;15.04;72.02;100852.75;5098289;28;20222;-85
2022/08/22 03:23:26;;;;;;;6.63;5.93;;;;;;;14.94;72.19;100847.22;5097775;28;20199;-85
2022/08/22 03:26:01;;;;;;;6.73;6.13;;;;;;;14.90;72.80;100845.75;5100823;28;20231;-85
2022/08/22 03:28:35;;;;;;;7.33;6.53;;;;;;;14.87;73.34;100843.31;5100879;28;20297;-85
2022/08/22 03:31:12;;;;;;;6.10;5.53;;;;;;;14.84;73.37;100838.22;5107532;28;20237;-85
2022/08/22 03:33:38;;;;;;;6.83;6.17;;;;;;;14.83;73.30;100839.19;5091402;28;20199;-85
2022/08/22 03:36:21;;;;;;;9.13;5.87;;;;;;;14.84;73.70;100830.19;5091542;28;20311;-85
2022/08/22 03:39:07;;;;;;;6.77;6.13;;;;;;;14.84;73.78;100835.53;5109123;28;20198;-86
2022/08/22 03:41:59;;;;;;;6.43;5.60;;;;;;;14.84;74.05;100838.22;5115680;28;20586;-85
2022/08/22 03:45:03;;;;;;;6.00;5.50;;;;;;;14.81;73.61;100836.63;5105460;28;20335;-85
2022/08/22 03:48:06;;;;;;;8.97;7.70;;;;;;;14.76;73.32;100841.47;5095281;28;20191;-85
2022/08/22 03:50:51;;;;;;;5.27;4.87;;;;;;;14.68;73.36;100854.66;5098587;28;20197;-85
2022/08/22 03:53:53;;;;;;;7.20;5.20;;;;;;;14.59;73.07;100844.63;5106335;28;20202;-85
2022/08/22 03:56:38;;;;;;;5.83;5.33;;;;;;;14.55;73.47;100844.00;5094051;28;20215;-86
2022/08/22 03:59:37;;;;;;;6.10;5.40;;;;;;;14.56;73.54;100845.69;5095176;28;20195;-86
2022/08/22 04:02:37;;;;;;;8.03;5.50;;;;;;;14.56;73.65;100850.19;5094390;28;20215;-85
2022/08/22 04:05:40;;;;;;;6.50;5.67;;;;;;;14.54;73.92;100847.63;5111874;28;20245;-86
2022/08/22 04:09:01;;;;;;;6.80;5.87;;;;;;;14.53;74.32;100851.28;5114712;28;20203;-85
2022/08/22 04:12:09;;;;;;;6.70;6.03;;;;;;;14.53;74.51;100853.13;5114589;28;20195;-86
2022/08/22 04:15:15;;;;;;;6.07;5.50;;;;;;;14.53;74.41;100855.78;5099126;28;20281;-85
2022/08/22 04:18:07;;;;;;;7.87;5.97;;;;;;;14.51;74.60;100860.44;5091460;28;20206;-85
2022/08/22 04:20:59;;;;;;;6.53;5.93;;;;;;;14.45;74.29;100853.72;5106040;28;20215;-85
2022/08/22 04:23:51;;;;;;;6.33;5.63;;;;;;;14.41;74.79;100854.91;5103992;28;20209;-85
2022/08/22 04:26:26;;;;;;;10.07;5.60;;;;;;;14.35;74.99;100858.00;5110900;28;20206;-85
2022/08/22 04:29:01;;;;;;;6.23;5.00;;;;;;;14.31;75.08;100855.72;5113405;28;20256;-84
2022/08/22 04:31:33;;;;;;;5.90;5.30;;;;;;;14.27;75.24;100854.22;5109347;27;20206;-84
2022/08/22 04:34:05;;;;;;;6.30;5.30;;;;;;;14.27;75.51;100854.22;5108261;28;20204;-85
2022/08/22 04:36:37;;;;;;;7.93;5.33;;;;;;;14.28;75.58;100856.78;5104095;28;20284;-86
2022/08/22 04:39:10;;;;;;;6.90;6.10;;;;;;;14.31;76.19;100861.06;5109337;28;20185;-85
2022/08/22 04:41:45;;;;;;;5.90;5.00;;;;;;;14.33;75.92;100870.66;5109055;28;20231;-84
2022/08/22 04:44:16;;;;;;;7.90;5.30;;;;;;;14.30;75.64;100864.72;5115474;28;20262;-85
2022/08/22 04:46:48;;;;;;;5.40;4.90;;;;;;;14.24;75.56;100871.38;5110624;28;20205;-85
2022/08/22 04:49:23;;;;;;;5.57;5.07;;;;;;;14.18;74.95;100878.03;5099561;28;20230;-85
2022/08/22 04:51:57;;;;;;;5.63;5.13;;;;;;;14.15;75.08;100874.75;5100329;28;20208;-85
2022/08/22 04:54:38;;;;;;;7.80;5.73;;;;;;;14.13;75.72;100882.06;5095216;28;20224;-85
2022/08/22 04:57:15;;;;;;;5.50;4.97;;;;;;;14.13;75.84;100876.69;5113394;28;20702;-85
2022/08/22 04:59:42;;;;;;;6.20;4.97;;;;;;;14.15;75.78;100882.78;5116216;28;20218;-86
2022/08/22 05:02:12;;;;;;;9.27;6.70;;;;;;;14.17;76.16;100879.00;5115168;28;20290;-85
2022/08/22 05:04:44;;;;;;;6.20;5.60;;;;;;;14.17;75.99;100889.72;5104961;28;20230;-84
2022/08/22 05:07:16;;;;;;;6.50;5.90;;;;;;;14.13;75.78;100887.41;5116021;28;20180;-85
2022/08/22 05:09:48;;;;;;;6.30;5.77;;;;;;;14.10;76.58;100888.50;5098276;28;20204;-85
2022/08/22 05:12:20;;;;;;;7.93;7.23;;;;;;;14.10;76.38;100893.84;5105193;28;20752;-85
2022/08/22 05:14:51;;;;;;;9.60;6.90;;;;;;;14.09;76.96;100894.81;5108789;28;20310;-85
2022/08/22 05:17:24;;;;;;;7.57;6.87;;;;;;;14.12;77.56;100905.31;5106580;28;20210;-85
2022/08/22 05:19:55;;;;;;;9.70;6.43;;;;;;;14.12;77.62;100907.97;5101105;28;20291;-85
2022/08/22 05:22:27;;;;;;;8.47;7.67;;;;;;;14.13;77.68;100908.84;5098573;28;20658;-85
2022/08/22 05:24:57;;;;;;;9.07;7.43;;;;;;;14.12;78.34;100916.00;5106843;28;20223;-84
2022/08/22 05:27:28;;;;;;;9.57;8.27;;;;;;;14.13;78.18;100914.19;5113821;28;20200;-85
2022/08/22 05:30:04;;;;;;;8.60;7.70;;;;;;;14.13;78.50;100909.69;5113421;28;20234;-86
2022/08/22 05:32:42;;;;;;;7.80;7.10;;;;;;;14.16;79.24;100911.25;5113479;27;20184;-85
2022/08/22 05:35:10;;;;;;;7.70;6.97;;;;;;;14.18;79.49;100909.31;5111436;28;20226;-85
2022/08/22 05:37:42;;;;;;;9.47;7.50;;;;;;;14.20;79.43;100902.91;5097603;28;20866;-85
2022/08/22 05:40:17;;;;;;;8.33;7.33;;;;;;;14.28;80.27;100902.34;5102073;28;20207;-86
2022/08/22 05:42:45;;;;;;;8.43;7.60;;;;;;;14.35;80.32;100916.97;5093236;28;20184;-86
2022/08/22 05:45:13;;;;;;;11.77;8.30;;;;;;;14.44;80.58;100910.09;5110241;28;20616;-86
2022/08/22 05:47:45;;;;;;;8.33;7.53;;;;;;;14.52;81.22;100905.88;5103622;28;20294;-84
2022/08/22 05:50:17;;;;;;;8.17;7.47;;;;;;;14.63;81.46;100899.72;5111359;27;20215;-85
2022/08/22 05:52:57;;;;;;;7.70;6.90;;;;;;;14.75;81.21;100897.91;5107737;28;20200;-85
2022/08/22 05:55:28;;;;;;;8.70;7.73;;;;;;;14.86;81.56;100900.63;5109596;28;20287;-87
2022/08/22 05:58:19;;;;;;;7.17;6.57;;;;;;;14.97;81.69;100897.97;5112484;28;20267;-86
2022/08/22 06:00:53;;;;;;;10.53;7.90;;;;;;;15.10;81.46;100909.44;5109212;27;20232;-85
2022/08/22 06:03:28;;;;;;;8.43;7.57;;;;;;;15.22;81.40;100907.63;5110628;27;20191;-86
2022/08/22 06:06:02;;;;;;;9.93;6.97;;;;;;;15.35;81.62;100907.50;5113844;28;20295;-87
2022/08/22 06:08:35;;;;;;;7.63;6.93;;;;;;;15.46;81.26;100912.88;5112375;27;20210;-87
2022/08/22 06:11:07;;;;;;;9.47;7.37;;;;;;;15.59;81.14;100913.63;5111059;27;20226;-86
2022/08/22 06:14:00;;;;;;;7.57;6.87;;;;;;;15.74;81.07;100908.88;5116527;28;20188;-85
2022/08/22 06:16:37;;;;;;;8.00;6.70;;;;;;;15.88;80.89;100912.16;5110118;28;20560;-88
2022/08/22 06:19:05;;;;;;;7.47;6.77;;;;;;;16.04;80.69;100905.53;5101111;28;20688;-85
2022/08/22 06:21:37;;;;;;;9.77;7.43;;;;;;;16.19;80.73;100906.94;5098657;28;20655;-85
2022/08/22 06:24:07;;;;;;;8.53;6.77;;;;;;;16.34;79.94;100913.72;5105245;28;20197;-85
2022/08/22 06:26:41;;;;;;;7.87;6.70;;;;;;;16.49;79.95;100922.34;5107155;28;20213;-85
2022/08/22 06:29:09;;;;;;;7.97;7.23;;;;;;;16.65;79.16;100929.06;5113420;28;20255;-87
2022/08/22 06:31:41;;;;;;;7.30;6.60;;;;;;;16.80;78.35;100924.22;5104766;28;20206;-85
2022/08/22 06:34:11;;;;;;;8.80;6.60;;;;;;;16.95;77.79;100922.91;5102135;28;20277;-87
2022/08/22 06:36:43;;;;;;;7.20;6.50;;;;;;;17.11;77.20;100917.03;5097063;28;20670;-85
2022/08/22 06:39:17;;;;;;;6.93;6.33;;;;;;;17.28;76.47;100920.97;5108141;28;20199;-85
2022/08/22 06:41:49;;;;;;;7.83;6.57;;;;;;;17.41;75.61;100918.91;5102944;28;20858;-85
2022/08/22 06:44:20;;;;;;;6.70;5.60;;;;;;;17.55;75.10;100917.72;5108594;28;20242;-86
2022/08/22 06:46:50;;;;;;;7.20;6.47;;;;;;;17.70;74.47;100913.69;5100267;28;20205;-85
2022/08/22 06:49:17;;;;;;;8.10;6.57;;;;;;;17.82;73.79;100914.41;5103929;28;20230;-86
2022/08/22 06:51:47;;;;;;;7.20;6.07;;;;;;;17.94;73.16;100927.63;5114539;28;20204;-86
2022/08/22 06:54:17;;;;;;;6.80;6.20;;;;;;;18.05;72.36;100915.91;5119786;28;20595;-86
2022/08/22 06:56:47;;;;;;;6.60;5.87;;;;;;;18.16;71.74;100914.91;5102930;28;20196;-85
2022/08/22 06:59:17;;;;;;;9.83;6.07;;;;;;;18.28;71.41;100920.03;5103960;28;20298;-85
2022/08/22 07:01:50;;;;;;;6.93;5.77;;;;;;;18.42;71.05;100915.25;5108495;28;20208;-85
2022/08/22 07:04:17;;;;;;;6.20;5.63;;;;;;;18.57;70.53;100911.97;5104901;28;20684;-85
2022/08/22 07:06:49;;;;;;;7.23;5.50;;;;;;;18.70;69.98;100909.03;5106135;28;20193;-85
2022/08/22 07:09:23;;;;;;;6.60;5.40;;;;;;;18.84;69.18;100918.50;5114809;28;20218;-86
2022/08/22 07:11:52;;;;;;;7.40;5.53;;;;;;;19.00;68.32;100918.78;5106920;27;20207;-84
2022/08/22 07:14:26;;;;;;;7.67;5.50;;;;;;;19.14;67.84;100918.34;5112070;27;20226;-85
2022/08/22 07:16:56;;;;;;;7.17;5.50;;;;;;;19.26;66.88;100922.56;5116042;27;20877;-85
2022/08/22 07:19:27;;;;;;;6.40;5.80;;;;;;;19.39;66.20;100922.22;5106393;27;20214;-85
2022/08/22 07:21:56;;;;;;;6.23;5.33;;;;;;;19.55;65.64;100924.34;5110527;27;20740;-85
2022/08/22 07:24:30;;;;;;;6.93;5.47;;;;;;;19.69;64.80;100927.44;5108999;28;20222;-86
2022/08/22 07:27:07;;;;;;;10.03;6.00;;;;;;;19.86;64.50;100928.47;5109173;27;20220;-85
2022/08/22 07:29:44;;;;;;;5.87;5.17;;;;;;;20.05;63.83;100927.53;5108350;27;20222;-85
2022/08/22 07:32:17;;;;;;;5.50;5.00;;;;;;;20.21;62.84;100925.00;5115202;27;20221;-84
2022/08/22 07:35:01;;;;;;;5.77;5.20;;;;;;;20.36;62.00;100923.50;5108237;27;20228;-85
2022/08/22 07:37:47;;;;;;;6.53;4.67;;;;;;;20.50;61.14;100923.97;5113531;27;20298;-84
2022/08/22 07:40:21;;;;;;;5.57;4.90;;;;;;;20.65;60.46;100923.25;5122194;27;20195;-85
2022/08/22 07:42:54;;;;;;;5.07;4.50;;;;;;;20.79;59.47;100921.84;5112028;27;20212;-85
2022/08/22 07:45:32;;;;;;;6.93;4.67;;;;;;;20.91;58.79;100920.59;5112656;27;20225;-85
2022/08/22 07:48:09;;;;;;;8.68;4.95;;;;;;;21.04;58.10;100923.75;5111631;27;20234;-85
2022/08/22 07:50:40;;;;;;;6.15;4.30;;;;;;;21.22;57.58;100926.44;5112230;27;20215;-85
2022/08/22 07:53:19;;;;;;;6.70;4.20;;;;;;;21.39;56.97;100930.94;5114705;27;20246;-85
2022/08/22 07:55:47;;;;;;;5.97;4.88;;;;;;;21.56;56.65;100937.31;5115278;27;20222;-85
2022/08/22 07:58:15;;;;;;;5.70;4.22;;;;;;;21.70;55.96;100939.41;5106595;28;20286;-85
2022/08/22 08:00:43;;;;;;;8.23;4.18;;;;;;;21.86;55.62;100935.91;5103872;28;20295;-84
2022/08/22 08:03:11;;;;;;;5.75;3.92;;;;;;;22.04;55.16;100935.84;5108398;27;20224;-84
2022/08/22 08:05:43;;;;;;;7.03;4.60;;;;;;;22.22;54.68;100933.03;5105665;27;20228;-85
2022/08/22 08:08:20;;;;;;;5.13;4.68;;;;;;;22.39;54.08;100923.94;5111276;28;20199;-85
2022/08/22 08:10:49;;;;;;;6.22;4.55;;;;;;;22.56;53.39;100924.81;5121930;27;20226;-85
2022/08/22 08:13:24;;;;;;;5.78;4.60;;;;;;;22.68;53.08;100913.44;5115309;27;20666;-86
2022/08/22 08:15:51;;;;;;;7.93;4.38;;;;;;;22.84;52.87;100916.19;5101228;27;20237;-84
2022/08/22 08:18:22;;;;;;;5.15;4.45;;;;;;;22.99;52.37;100908.19;5108916;27;20203;-85
2022/08/22 08:20:51;;;;;;;7.07;5.25;;;;;;;23.16;51.67;100911.72;5116169;27;20204;-85
2022/08/22 08:23:21;;;;;;;6.32;4.97;;;;;;;23.29;50.74;100913.94;5104449;27;20646;-85
2022/08/22 08:25:54;;;;;;;6.15;4.43;;;;;;;23.42;50.95;100917.81;5108253;27;20230;-85
2022/08/22 08:28:33;;;;;;;5.50;4.85;;;;;;;23.60;50.35;100911.34;5115175;27;20200;-85
2022/08/22 08:31:06;;;;;;;6.88;5.30;;;;;;;23.78;49.48;100917.38;5111935;27;20614;-85
2022/08/22 08:33:35;;;;;;;6.45;5.18;;;;;;;23.92;48.76;100913.91;5105361;27;20287;-84
2022/08/22 08:36:08;;;;;;;5.53;4.72;;;;;;;24.06;48.29;100905.00;5105936;27;20306;-85
2022/08/22 08:38:53;;;;;;;7.70;5.88;;;;;;;24.23;48.26;100909.34;5101627;28;20226;-85
2022/08/22 08:41:37;;;;;;;6.72;5.38;;;;;;;24.39;47.90;100896.66;5105526;27;20198;-85
2022/08/22 08:44:17;;;;;;;5.90;5.32;;;;;;;24.56;47.68;100901.78;5104135;27;20664;-85
2022/08/22 08:47:10;;;;;;;5.47;3.47;;;;;;;24.75;46.88;100897.72;5102247;28;20195;-85
2022/08/22 08:49:47;;;;;;;4.72;2.63;;;;;;;24.86;45.70;100894.59;5105075;27;20223;-85
2022/08/22 08:52:46;;;;;;;6.22;2.92;;;;;;;24.98;45.69;100896.88;5106343;28;20196;-84
2022/08/22 08:55:30;;;;;;;8.27;3.15;;;;;;;25.10;45.08;100896.25;5107193;27;20319;-84
2022/08/22 08:58:15;;;;;;;8.50;3.40;;;;;;;25.21;44.81;100889.50;5107766;27;20214;-84
2022/08/22 09:00:54;;;;;;;5.82;2.60;;;;;;;25.37;44.47;100889.34;5105387;28;20200;-85
2022/08/22 09:03:42;;;;;;;5.28;2.58;;;;;;;25.56;43.77;100890.66;5106824;28;20758;-85
2022/08/22 09:06:30;;;;;;;3.22;1.90;;;;;;;25.75;43.68;100895.56;5112799;27;20228;-85
2022/08/22 09:09:19;;;;;;;4.72;2.58;;;;;;;25.87;42.33;100893.19;5102530;28;20204;-85
2022/08/22 09:12:33;;;;;;;5.78;2.70;;;;;;;26.01;42.68;100894.19;5107265;27;20764;-85
2022/08/22 09:15:21;;;;;;;5.03;2.22;;;;;;;26.18;41.62;100887.44;5067847;28;20227;-84
2022/08/22 09:18:32;;;;;;;3.28;2.00;;;;;;;26.33;41.26;100873.81;5111741;27;20208;-85
2022/08/22 09:21:17;;;;;;;5.25;2.30;;;;;;;26.48;40.29;100877.31;5104626;27;20222;-85
2022/08/22 09:24:20;;;;;;;6.32;2.03;;;;;;;26.60;40.11;100876.59;5112814;27;20728;-84
2022/08/22 09:26:50;;;;;;;3.28;2.13;;;;;;;26.71;39.02;100877.94;5105590;27;20199;-85
2022/08/22 09:29:37;;;;;;;2.85;2.28;;;;;;;26.80;38.77;100871.31;5108219;27;20200;-84
2022/08/22 09:32:13;;;;;;;5.47;2.08;;;;;;;26.89;38.32;100867.38;5107267;27;20250;-85
2022/08/22 09:34:56;;;;;;;2.42;1.45;;;;;;;27.00;37.98;100862.44;5108431;27;20253;-85
2022/08/22 09:37:34;;;;;;;6.63;3.40;;;;;;;27.15;37.95;100865.91;5106254;28;20665;-85
2022/08/22 09:40:05;;;;;;;3.22;1.90;;;;;;;27.25;36.85;100856.31;5105492;27;20562;-85
2022/08/22 09:42:41;;;;;;;6.03;2.08;;;;;;;27.33;36.62;100863.50;5112164;27;20237;-85
2022/08/22 09:45:44;;;;;;;7.90;2.53;;;;;;;27.45;36.02;100856.41;5102372;27;20221;-85
2022/08/22 09:48:29;;;;;;;3.92;1.83;;;;;;;27.50;35.90;100853.94;5021096;28;20272;-85
2022/08/22 09:51:10;;;;;;;2.25;1.85;;;;;;;27.58;35.00;100852.97;5104769;27;20221;-85
2022/08/22 09:53:55;;;;;;;3.47;2.20;;;;;;;27.62;34.97;100846.00;5105931;28;20208;-85
2022/08/22 09:56:26;;;;;;;5.50;2.33;;;;;;;27.70;34.90;100850.47;5101287;28;20219;-85
2022/08/22 09:59:01;;;;;;;4.30;1.75;;;;;;;27.74;34.78;100847.16;5106371;28;20207;-84
2022/08/22 10:01:32;;;;;;;4.20;1.70;;;;;;;27.78;33.50;100853.03;5109816;27;20206;-85
2022/08/22 10:04:28;;;;;;;3.58;1.77;;;;;;;27.83;33.93;100839.56;5106116;28;20202;-85
2022/08/22 10:07:01;;;;;;;2.45;1.35;;;;;;;27.93;33.63;100840.91;5097580;28;20196;-85
2022/08/22 10:09:40;;;;;;;2.42;1.70;;;;;;;28.05;33.30;100826.59;5098847;28;20617;-84
2022/08/22 10:12:11;;;;;;;5.70;2.47;;;;;;;28.18;33.00;100837.56;5106068;28;20202;-85
2022/08/22 10:14:52;;;;;;;4.85;2.00;;;;;;;28.26;33.01;100830.06;5104251;27;20238;-85
2022/08/22 10:17:25;;;;;;;3.75;2.05;;;;;;;28.33;32.63;100824.56;5112545;28;20467;-85
2022/08/22 10:20:00;;;;;;;4.05;1.65;;;;;;;28.42;33.08;100823.31;5108702;27;20287;-84
2022/08/22 10:22:41;;;;;;;3.00;1.85;;;;;;;28.53;32.68;100827.31;5107273;28;20286;-84
2022/08/22 10:25:23;;;;;;;3.55;1.80;;;;;;;28.59;32.75;100823.75;5102804;28;20231;-85
2022/08/22 10:28:23;;;;;;;3.67;2.03;;;;;;;28.63;32.51;100819.53;5102664;28;20566;-85
2022/08/22 10:31:08;;;;;;;3.72;1.75;;;;;;;28.75;32.56;100817.00;5100392;27;20413;-85
2022/08/22 10:33:41;;;;;;;13.10;1.83;;;;;;;28.82;32.08;100813.25;5106588;28;20210;-85
2022/08/22 10:36:13;;;;;;;3.88;1.60;;;;;;;28.91;32.12;100805.63;5106543;28;20219;-85
2022/08/22 10:38:45;;;;;;;5.18;1.90;;;;;;;28.97;32.44;100816.59;5106423;28;20199;-85
2022/08/22 10:41:24;;;;;;;3.10;1.70;;;;;;;28.97;31.71;100816.59;5111095;28;20664;-85
2022/08/22 10:43:55;;;;;;;3.92;1.52;;;;;;;28.97;32.19;100810.25;5104129;28;20192;-85
2022/08/22 10:46:26;;;;;;;3.17;1.80;;;;;;;28.96;31.98;100812.16;5097363;28;20611;-85
2022/08/22 10:48:58;;;;;;;3.97;1.75;;;;;;;28.95;31.66;100806.88;5116251;27;20252;-84
2022/08/22 10:51:34;;;;;;;4.00;1.70;;;;;;;28.97;31.91;100805.63;5113016;28;20207;-84
2022/08/22 10:54:27;;;;;;;2.83;1.58;;;;;;;29.06;31.32;100795.25;5109189;28;20216;-85
2022/08/22 10:57:08;;;;;;;2.58;1.55;;;;;;;29.09;31.25;100796.72;5122091;27;20957;-85
2022/08/22 10:59:43;;;;;;;2.78;1.40;;;;;;;29.12;31.20;100791.66;5108585;28;20244;-85
2022/08/22 11:02:27;;;;;;;2.92;2.00;;;;;;;29.11;30.84;100794.63;5107214;28;20187;-86
2022/08/22 11:05:15;;;;;;;1.77;1.30;;;;;;;29.12;31.28;100790.81;5100988;28;20227;-85
2022/08/22 11:07:48;;;;;;;2.47;1.55;;;;;;;29.12;31.10;100799.06;5107551;27;20198;-85
2022/08/22 11:10:25;;;;;;;3.10;1.40;;;;;;;29.12;30.91;100796.31;5101858;28;20576;-85
2022/08/22 11:13:10;;;;;;;3.85;1.70;;;;;;;29.14;30.65;100794.19;5107430;28;20199;-85
2022/08/22 11:15:55;;;;;;;4.68;1.90;;;;;;;29.20;30.22;100790.59;5108500;28;20230;-85
2022/08/22 11:18:33;;;;;;;3.08;1.58;;;;;;;29.25;30.75;100793.53;5111939;27;20199;-85
2022/08/22 11:21:04;;;;;;;1.88;1.30;;;;;;;29.34;30.19;100786.75;5102071;27;20223;-85
2022/08/22 11:23:41;;;;;;;2.40;1.85;;;;;;;29.44;30.43;100783.56;5108351;28;20206;-85
2022/08/22 11:26:27;;;;;;;3.80;1.92;;;;;;;29.50;30.03;100790.94;5096022;28;20223;-85
2022/08/22 11:29:12;;;;;;;3.72;1.40;;;;;;;29.51;30.00;100785.25;5105952;28;20204;-84
2022/08/22 11:31:48;;;;;;;1.98;1.35;;;;;;;29.56;30.22;100777.16;5110883;27;20590;-85
2022/08/22 11:34:31;;;;;;;2.25;1.30;;;;;;;29.64;29.94;100782.44;5116093;27;20271;-85
2022/08/22 11:37:04;;;;;;;3.30;1.50;;;;;;;29.65;29.86;100783.25;5111347;28;20727;-84
2022/08/22 11:39:40;;;;;;;2.13;1.20;;;;;;;29.61;29.10;100782.00;5105777;27;20210;-85
2022/08/22 11:42:13;;;;;;;2.13;1.33;;;;;;;29.58;29.03;100777.78;5104466;28;20196;-85
2022/08/22 11:44:46;;;;;;;1.65;1.27;;;;;;;29.65;29.46;100775.88;5112364;27;20315;-85
2022/08/22 11:47:15;;;;;;;3.20;1.58;;;;;;;29.75;28.95;100771.78;5102353;28;21584;-86
2022/08/22 11:49:55;;;;;;;2.90;1.40;;;;;;;29.81;28.53;100782.75;5109828;27;20292;-85
2022/08/22 11:52:29;;;;;;;2.03;1.20;;;;;;;29.85;28.49;100783.16;5113128;27;20662;-85
2022/08/22 11:55:18;;;;;;;2.33;1.30;;;;;;;29.96;28.65;100776.97;5107577;27;20216;-85
2022/08/22 11:57:47;;;;;;;2.70;1.70;;;;;;;29.99;28.35;100784.78;5108687;28;20287;-84
2022/08/22 12:00:25;;;;;;;5.00;2.20;;;;;;;30.01;28.70;100779.94;5100915;28;20199;-85
2022/08/22 12:03:14;;;;;;;5.32;1.83;;;;;;;29.97;28.96;100775.91;5113062;28;20657;-85
2022/08/22 12:05:45;;;;;;;4.55;1.70;;;;;;;29.95;28.81;100773.38;5101276;28;20227;-84
2022/08/22 12:08:21;;;;;;;4.00;1.70;;;;;;;29.97;28.24;100771.28;5106261;27;20304;-85
2022/08/22 12:10:55;;;;;;;2.55;1.85;;;;;;;30.00;28.31;100776.34;5101404;27;20222;-84
2022/08/22 12:13:41;;;;;;;3.00;1.63;;;;;;;30.02;28.76;100770.63;5109858;27;20206;-85
2022/08/22 12:16:14;;;;;;;5.03;1.90;;;;;;;30.06;28.61;100762.78;5108351;27;20302;-86
2022/08/22 12:18:54;;;;;;;3.35;1.88;;;;;;;30.07;28.85;100767.22;5112986;27;20312;-85